Artvin — 9HA2782 — position and weather

sailwx.info

Track history (hours):
 
Tides and Currents Weather Stations Pressure Air Temp Water Temp Dewpoint Dewpoint Depression Visibility Wind Speed Wind Dir Waves Ship Positions

Artvin

Last reported at 2016-Aug-31 03:33 UTC. Time now 2016-Aug-31 04:27 UTC.
Position N 45°26' E 012°15'.

Length 229 m; draft 9.8 m.

Type: Cargo ship. MMSI: 215678000.

Date/timePositionNaut miles runAvg speedWind from/ knotsBaromVisibWave heightAir tempDewpointWater temp
2016-Aug-31 03:33N 45°26' E 012°15'0 0.0
2016-Aug-31 02:33N 45°26' E 012°15'0 0.0
2016-Aug-31 01:33N 45°26' E 012°15'0 0.0
2016-Aug-31 00:33N 45°26' E 012°15'0 0.0
2016-Aug-30 23:33N 45°26' E 012°15'0 0.0
2016-Aug-30 22:33N 45°26' E 012°15'0 0.0
2016-Aug-30 21:33N 45°26' E 012°15'0 0.0
2016-Aug-30 20:33N 45°26' E 012°15'0 0.0
2016-Aug-30 19:27N 45°26' E 012°15'0 0.0
2016-Aug-30 18:32N 45°26' E 012°15'0 0.0
2016-Aug-30 17:33N 45°26' E 012°15'0 0.0
2016-Aug-30 16:32N 45°26' E 012°15'0 0.0
2016-Aug-30 15:32N 45°26' E 012°15'0 0.0
2016-Aug-30 14:32N 45°26' E 012°15'0 0.0
2016-Aug-30 13:32N 45°26' E 012°15'0 0.0
2016-Aug-30 12:32N 45°26' E 012°15'0 0.0
2016-Aug-30 11:32N 45°26' E 012°15'0 0.0
2016-Aug-30 10:32N 45°26' E 012°15'0 0.0
2016-Aug-30 09:33N 45°26' E 012°15'0 0.0
2016-Aug-30 08:32N 45°26' E 012°15'2 1.6
2016-Aug-30 07:33N 45°25' E 012°16'8 7.7
2016-Aug-30 06:33N 45°19' E 012°24'3 3.0
2016-Aug-30 05:34N 45°20' E 012°28'1 1.2
2016-Aug-30 04:31N 45°21' E 012°28'0 0.0
2016-Aug-30 03:31N 45°21' E 012°28'0 0.0
2016-Aug-30 02:31N 45°21' E 012°28'0 0.0
2016-Aug-30 01:25N 45°21' E 012°28'0 0.0
2016-Aug-30 00:31N 45°21' E 012°28'0 0.0
2016-Aug-29 23:31N 45°21' E 012°28'0 0.0
2016-Aug-29 22:31N 45°21' E 012°28'0 0.0
2016-Aug-29 21:31N 45°21' E 012°28'0 0.2
2016-Aug-29 20:31N 45°21' E 012°29'0 0.0
2016-Aug-29 19:31N 45°21' E 012°29'0 0.0
2016-Aug-29 18:31N 45°21' E 012°29'0 0.0
2016-Aug-29 17:31N 45°21' E 012°29'0 0.0
2016-Aug-29 16:31N 45°21' E 012°29'0 0.0
2016-Aug-29 15:31N 45°21' E 012°29'0 0.0
2016-Aug-29 14:31N 45°21' E 012°29'0 0.0
2016-Aug-29 13:31N 45°21' E 012°29'0 0.0
2016-Aug-29 12:31N 45°21' E 012°29'0 0.0
2016-Aug-29 11:31N 45°21' E 012°29'0 0.0
2016-Aug-29 10:31N 45°21' E 012°29'0 0.0
2016-Aug-29 09:31N 45°21' E 012°29'0 0.0
2016-Aug-29 08:31N 45°21' E 012°29'0 0.0
2016-Aug-29 07:31N 45°21' E 012°29'0 0.0
2016-Aug-29 06:31N 45°21' E 012°29'0 0.0
2016-Aug-29 05:31N 45°21' E 012°29'0 0.0
2016-Aug-29 04:31N 45°21' E 012°29'0 0.0
2016-Aug-29 03:31N 45°21' E 012°29'0 0.0
2016-Aug-29 02:31N 45°21' E 012°29'0 0.0
2016-Aug-29 01:31N 45°21' E 012°29'0 0.0
2016-Aug-29 00:31N 45°21' E 012°29'0 0.0
2016-Aug-28 23:31N 45°21' E 012°29'0 0.0
2016-Aug-28 22:31N 45°21' E 012°29'0 0.0
2016-Aug-28 21:31N 45°21' E 012°29'0 0.0
2016-Aug-28 20:31N 45°21' E 012°29'0 0.0
2016-Aug-28 19:31N 45°21' E 012°29'0 0.0
2016-Aug-28 18:31N 45°21' E 012°29'0 0.0
2016-Aug-28 17:31N 45°21' E 012°29'0 0.0
2016-Aug-28 16:31N 45°21' E 012°29'0 0.0
2016-Aug-28 15:31N 45°21' E 012°29'0 0.0
2016-Aug-28 14:31N 45°21' E 012°29'0 0.0
2016-Aug-28 13:31N 45°21' E 012°29'0 0.0
2016-Aug-28 12:31N 45°21' E 012°29'0 0.0
2016-Aug-28 11:31N 45°21' E 012°29'0 0.0
2016-Aug-28 10:31N 45°21' E 012°29'0 0.2
2016-Aug-28 09:31N 45°21' E 012°29'1 0.7
2016-Aug-28 08:33N 45°20' E 012°28'6 5.8
2016-Aug-28 07:34N 45°16' E 012°35'1313.3
2016-Aug-28 06:33N 45°23' E 012°51'1414.2
2016-Aug-28 05:33N 45°30' E 013°08'1514.2
2016-Aug-28 04:32N 45°36' E 013°28'1010.5
2016-Aug-28 03:33N 45°34' E 013°42'2 1.8
2016-Aug-28 02:34N 45°34' E 013°44'0 0.0
2016-Aug-28 01:32N 45°34' E 013°44'0 0.0
2016-Aug-28 00:32N 45°34' E 013°44'0 0.0
2016-Aug-27 23:32N 45°34' E 013°44'0 0.0
2016-Aug-27 22:32N 45°34' E 013°44'0 0.0
2016-Aug-27 21:29N 45°34' E 013°44'0 0.0
2016-Aug-27 20:32N 45°34' E 013°44'0 0.0
2016-Aug-27 19:32N 45°34' E 013°44'0 0.0
2016-Aug-27 18:29N 45°34' E 013°44'0 0.0
2016-Aug-27 17:32N 45°34' E 013°44'0 0.0
2016-Aug-27 16:29N 45°34' E 013°44'0 0.0
2016-Aug-27 15:26N 45°34' E 013°44'0 0.0
2016-Aug-27 07:32N 45°34' E 013°44'0 0.0
2016-Aug-27 01:33N 45°34' E 013°44'30 0.6
2016-Aug-25 02:33N 45°12' E 013°15'1413.7
2016-Aug-25 01:33N 44°59' E 013°21'51510.2
2016-Aug-22 23:15N 36°32' E 015°21'2211.6
2016-Aug-22 21:23N 36°24' E 014°56'1012.5
2016-Aug-22 20:34N 36°24' E 014°43'1312.9
2016-Aug-22 19:33N 36°25' E 014°27'1313.3
2016-Aug-22 18:33N 36°27' E 014°10'1313.1
2016-Aug-22 17:34N 36°29' E 013°54'1313.3
2016-Aug-22 16:34N 36°32' E 013°38'1313.4
2016-Aug-22 15:33N 36°36' E 013°23'1313.2
2016-Aug-22 14:33N 36°40' E 013°07'1313.3
2016-Aug-22 13:33N 36°44' E 012°51'1313.1
2016-Aug-22 12:33N 36°50' E 012°36'8213.6
2016-Aug-22 06:33N 37°25' E 011°03'5313.0
2016-Aug-22 02:28N 37°33' E 009°57'2513.0
2016-Aug-22 00:33N 37°25' E 009°27'  
Track history (hours):
 
Tides and Currents Weather Stations Pressure Air Temp Water Temp Dewpoint Dewpoint Depression Visibility Wind Speed Wind Dir Waves Ship Positions

Artvin

Last reported at 2016-Aug-31 03:33 UTC. Time now 2016-Aug-31 04:27 UTC.
Position N 45°26' E 012°15'.

Length 229 m; draft 9.8 m.

Type: Cargo ship. MMSI: 215678000.

Date/timePositionNaut miles runAvg speedWind from/ knotsBaromVisibWave heightAir tempDewpointWater temp
2016-Aug-31 03:33N 45°26' E 012°15'0 0.0
2016-Aug-31 02:33N 45°26' E 012°15'0 0.0
2016-Aug-31 01:33N 45°26' E 012°15'0 0.0
2016-Aug-31 00:33N 45°26' E 012°15'0 0.0
2016-Aug-30 23:33N 45°26' E 012°15'0 0.0
2016-Aug-30 22:33N 45°26' E 012°15'0 0.0
2016-Aug-30 21:33N 45°26' E 012°15'0 0.0
2016-Aug-30 20:33N 45°26' E 012°15'0 0.0
2016-Aug-30 19:27N 45°26' E 012°15'0 0.0
2016-Aug-30 18:32N 45°26' E 012°15'0 0.0
2016-Aug-30 17:33N 45°26' E 012°15'0 0.0
2016-Aug-30 16:32N 45°26' E 012°15'0 0.0
2016-Aug-30 15:32N 45°26' E 012°15'0 0.0
2016-Aug-30 14:32N 45°26' E 012°15'0 0.0
2016-Aug-30 13:32N 45°26' E 012°15'0 0.0
2016-Aug-30 12:32N 45°26' E 012°15'0 0.0
2016-Aug-30 11:32N 45°26' E 012°15'0 0.0
2016-Aug-30 10:32N 45°26' E 012°15'0 0.0
2016-Aug-30 09:33N 45°26' E 012°15'0 0.0
2016-Aug-30 08:32N 45°26' E 012°15'2 1.6
2016-Aug-30 07:33N 45°25' E 012°16'8 7.7
2016-Aug-30 06:33N 45°19' E 012°24'3 3.0
2016-Aug-30 05:34N 45°20' E 012°28'1 1.2
2016-Aug-30 04:31N 45°21' E 012°28'0 0.0
2016-Aug-30 03:31N 45°21' E 012°28'0 0.0
2016-Aug-30 02:31N 45°21' E 012°28'0 0.0
2016-Aug-30 01:25N 45°21' E 012°28'0 0.0
2016-Aug-30 00:31N 45°21' E 012°28'0 0.0
2016-Aug-29 23:31N 45°21' E 012°28'0 0.0
2016-Aug-29 22:31N 45°21' E 012°28'0 0.0
2016-Aug-29 21:31N 45°21' E 012°28'0 0.2
2016-Aug-29 20:31N 45°21' E 012°29'0 0.0
2016-Aug-29 19:31N 45°21' E 012°29'0 0.0
2016-Aug-29 18:31N 45°21' E 012°29'0 0.0
2016-Aug-29 17:31N 45°21' E 012°29'0 0.0
2016-Aug-29 16:31N 45°21' E 012°29'0 0.0
2016-Aug-29 15:31N 45°21' E 012°29'0 0.0
2016-Aug-29 14:31N 45°21' E 012°29'0 0.0
2016-Aug-29 13:31N 45°21' E 012°29'0 0.0
2016-Aug-29 12:31N 45°21' E 012°29'0 0.0
2016-Aug-29 11:31N 45°21' E 012°29'0 0.0
2016-Aug-29 10:31N 45°21' E 012°29'0 0.0
2016-Aug-29 09:31N 45°21' E 012°29'0 0.0
2016-Aug-29 08:31N 45°21' E 012°29'0 0.0
2016-Aug-29 07:31N 45°21' E 012°29'0 0.0
2016-Aug-29 06:31N 45°21' E 012°29'0 0.0
2016-Aug-29 05:31N 45°21' E 012°29'0 0.0
2016-Aug-29 04:31N 45°21' E 012°29'0 0.0
2016-Aug-29 03:31N 45°21' E 012°29'0 0.0
2016-Aug-29 02:31N 45°21' E 012°29'0 0.0
2016-Aug-29 01:31N 45°21' E 012°29'0 0.0
2016-Aug-29 00:31N 45°21' E 012°29'0 0.0
2016-Aug-28 23:31N 45°21' E 012°29'0 0.0
2016-Aug-28 22:31N 45°21' E 012°29'0 0.0
2016-Aug-28 21:31N 45°21' E 012°29'0 0.0
2016-Aug-28 20:31N 45°21' E 012°29'0 0.0
2016-Aug-28 19:31N 45°21' E 012°29'0 0.0
2016-Aug-28 18:31N 45°21' E 012°29'0 0.0
2016-Aug-28 17:31N 45°21' E 012°29'0 0.0
2016-Aug-28 16:31N 45°21' E 012°29'0 0.0
2016-Aug-28 15:31N 45°21' E 012°29'0 0.0
2016-Aug-28 14:31N 45°21' E 012°29'0 0.0
2016-Aug-28 13:31N 45°21' E 012°29'0 0.0
2016-Aug-28 12:31N 45°21' E 012°29'0 0.0
2016-Aug-28 11:31N 45°21' E 012°29'0 0.0
2016-Aug-28 10:31N 45°21' E 012°29'0 0.2
2016-Aug-28 09:31N 45°21' E 012°29'1 0.7
2016-Aug-28 08:33N 45°20' E 012°28'6 5.8
2016-Aug-28 07:34N 45°16' E 012°35'1313.3
2016-Aug-28 06:33N 45°23' E 012°51'1414.2
2016-Aug-28 05:33N 45°30' E 013°08'1514.2
2016-Aug-28 04:32N 45°36' E 013°28'1010.5
2016-Aug-28 03:33N 45°34' E 013°42'2 1.8
2016-Aug-28 02:34N 45°34' E 013°44'0 0.0
2016-Aug-28 01:32N 45°34' E 013°44'0 0.0
2016-Aug-28 00:32N 45°34' E 013°44'0 0.0
2016-Aug-27 23:32N 45°34' E 013°44'0 0.0
2016-Aug-27 22:32N 45°34' E 013°44'0 0.0
2016-Aug-27 21:29N 45°34' E 013°44'0 0.0
2016-Aug-27 20:32N 45°34' E 013°44'0 0.0
2016-Aug-27 19:32N 45°34' E 013°44'0 0.0
2016-Aug-27 18:29N 45°34' E 013°44'0 0.0
2016-Aug-27 17:32N 45°34' E 013°44'0 0.0
2016-Aug-27 16:29N 45°34' E 013°44'0 0.0
2016-Aug-27 15:26N 45°34' E 013°44'0 0.0
2016-Aug-27 07:32N 45°34' E 013°44'0 0.0
2016-Aug-27 01:33N 45°34' E 013°44'30 0.6
2016-Aug-25 02:33N 45°12' E 013°15'1413.7
2016-Aug-25 01:33N 44°59' E 013°21'51510.2
2016-Aug-22 23:15N 36°32' E 015°21'2211.6
2016-Aug-22 21:23N 36°24' E 014°56'1012.5
2016-Aug-22 20:34N 36°24' E 014°43'1312.9
2016-Aug-22 19:33N 36°25' E 014°27'1313.3
2016-Aug-22 18:33N 36°27' E 014°10'1313.1
2016-Aug-22 17:34N 36°29' E 013°54'1313.3
2016-Aug-22 16:34N 36°32' E 013°38'1313.4
2016-Aug-22 15:33N 36°36' E 013°23'1313.2
2016-Aug-22 14:33N 36°40' E 013°07'1313.3
2016-Aug-22 13:33N 36°44' E 012°51'1313.1
2016-Aug-22 12:33N 36°50' E 012°36'8213.6
2016-Aug-22 06:33N 37°25' E 011°03'5313.0
2016-Aug-22 02:28N 37°33' E 009°57'2513.0
2016-Aug-22 00:33N 37°25' E 009°27'  

Dump ship's entire track history